sensor_id;sensor_type;location;lat;lon;timestamp;temperature;humidity
33955;DHT22;20233;50.804;7.126;2023-12-22T00:01:42;6.70;99.90
33955;DHT22;20233;50.804;7.126;2023-12-22T00:04:08;6.80;99.90
33955;DHT22;20233;50.804;7.126;2023-12-22T00:06:35;6.60;99.90
33955;DHT22;20233;50.804;7.126;2023-12-22T00:09:02;4.70;99.90
33955;DHT22;20233;50.804;7.126;2023-12-22T00:11:28;4.30;99.90
33955;DHT22;20233;50.804;7.126;2023-12-22T00:13:56;4.50;99.90
33955;DHT22;20233;50.804;7.126;2023-12-22T00:16:22;4.60;99.90
33955;DHT22;20233;50.804;7.126;2023-12-22T00:18:48;4.60;99.90
33955;DHT22;20233;50.804;7.126;2023-12-22T00:21:14;4.60;99.90
33955;DHT22;20233;50.804;7.126;2023-12-22T00:23:40;4.60;99.90
33955;DHT22;20233;50.804;7.126;2023-12-22T00:26:06;4.50;99.90
33955;DHT22;20233;50.804;7.126;2023-12-22T00:28:32;4.50;99.90
33955;DHT22;20233;50.804;7.126;2023-12-22T00:30:58;4.50;99.90
33955;DHT22;20233;50.804;7.126;2023-12-22T00:33:25;4.50;99.90
33955;DHT22;20233;50.804;7.126;2023-12-22T00:35:51;4.50;99.90
33955;DHT22;20233;50.804;7.126;2023-12-22T00:38:18;4.50;99.90
33955;DHT22;20233;50.804;7.126;2023-12-22T00:40:46;4.60;99.90
33955;DHT22;20233;50.804;7.126;2023-12-22T00:43:13;4.60;99.90
33955;DHT22;20233;50.804;7.126;2023-12-22T00:45:39;4.70;99.90
33955;DHT22;20233;50.804;7.126;2023-12-22T00:48:06;4.70;99.90
33955;DHT22;20233;50.804;7.126;2023-12-22T00:50:32;4.80;99.90
33955;DHT22;20233;50.804;7.126;2023-12-22T00:52:58;4.80;99.90
33955;DHT22;20233;50.804;7.126;2023-12-22T00:55:24;4.90;99.90
33955;DHT22;20233;50.804;7.126;2023-12-22T00:57:50;4.90;99.90
33955;DHT22;20233;50.804;7.126;2023-12-22T01:00:18;5.00;99.90
33955;DHT22;20233;50.804;7.126;2023-12-22T01:02:48;5.00;99.90
33955;DHT22;20233;50.804;7.126;2023-12-22T01:05:14;5.00;99.90
33955;DHT22;20233;50.804;7.126;2023-12-22T01:07:40;5.10;99.90
33955;DHT22;20233;50.804;7.126;2023-12-22T01:10:07;5.20;99.90
33955;DHT22;20233;50.804;7.126;2023-12-22T01:12:35;5.20;99.90
33955;DHT22;20233;50.804;7.126;2023-12-22T01:15:01;5.30;99.90
33955;DHT22;20233;50.804;7.126;2023-12-22T01:17:27;5.30;99.90
33955;DHT22;20233;50.804;7.126;2023-12-22T01:19:54;5.30;99.90
33955;DHT22;20233;50.804;7.126;2023-12-22T01:22:20;5.30;99.90
33955;DHT22;20233;50.804;7.126;2023-12-22T01:24:46;5.40;99.90
33955;DHT22;20233;50.804;7.126;2023-12-22T01:27:12;5.40;99.90
33955;DHT22;20233;50.804;7.126;2023-12-22T01:29:39;5.40;99.90
33955;DHT22;20233;50.804;7.126;2023-12-22T01:32:05;5.40;99.90
33955;DHT22;20233;50.804;7.126;2023-12-22T01:34:32;5.50;99.90
33955;DHT22;20233;50.804;7.126;2023-12-22T01:36:59;5.50;99.90
33955;DHT22;20233;50.804;7.126;2023-12-22T01:39:25;5.50;99.90
33955;DHT22;20233;50.804;7.126;2023-12-22T01:41:51;5.60;99.90
33955;DHT22;20233;50.804;7.126;2023-12-22T01:44:17;5.60;99.90
33955;DHT22;20233;50.804;7.126;2023-12-22T01:46:43;5.70;99.90
33955;DHT22;20233;50.804;7.126;2023-12-22T01:49:11;5.60;99.90
33955;DHT22;20233;50.804;7.126;2023-12-22T01:51:40;5.70;99.90
33955;DHT22;20233;50.804;7.126;2023-12-22T01:54:07;5.60;99.90
33955;DHT22;20233;50.804;7.126;2023-12-22T01:56:33;5.70;99.90
33955;DHT22;20233;50.804;7.126;2023-12-22T01:59:01;5.90;99.90
33955;DHT22;20233;50.804;7.126;2023-12-22T02:01:28;5.90;99.90
33955;DHT22;20233;50.804;7.126;2023-12-22T02:03:54;5.80;99.90
33955;DHT22;20233;50.804;7.126;2023-12-22T02:06:21;5.70;99.90
33955;DHT22;20233;50.804;7.126;2023-12-22T02:08:48;5.70;99.90
33955;DHT22;20233;50.804;7.126;2023-12-22T02:11:15;5.70;99.90
33955;DHT22;20233;50.804;7.126;2023-12-22T02:13:44;5.70;99.90
33955;DHT22;20233;50.804;7.126;2023-12-22T02:16:35;5.80;99.90
33955;DHT22;20233;50.804;7.126;2023-12-22T02:22:03;5.70;99.90
33955;DHT22;20233;50.804;7.126;2023-12-22T02:24:30;5.80;99.90
33955;DHT22;20233;50.804;7.126;2023-12-22T02:27:04;5.80;99.90
33955;DHT22;20233;50.804;7.126;2023-12-22T02:29:43;5.80;99.90
33955;DHT22;20233;50.804;7.126;2023-12-22T02:32:23;5.90;99.90
33955;DHT22;20233;50.804;7.126;2023-12-22T02:34:51;5.80;99.90
33955;DHT22;20233;50.804;7.126;2023-12-22T02:37:18;5.80;99.90
33955;DHT22;20233;50.804;7.126;2023-12-22T02:39:48;5.80;99.90
33955;DHT22;20233;50.804;7.126;2023-12-22T02:42:16;5.80;99.90
33955;DHT22;20233;50.804;7.126;2023-12-22T02:44:43;5.80;99.90
33955;DHT22;20233;50.804;7.126;2023-12-22T02:47:09;5.90;99.90
33955;DHT22;20233;50.804;7.126;2023-12-22T02:49:35;5.80;99.90
33955;DHT22;20233;50.804;7.126;2023-12-22T02:52:02;5.80;99.90
33955;DHT22;20233;50.804;7.126;2023-12-22T02:54:29;5.90;99.90
33955;DHT22;20233;50.804;7.126;2023-12-22T02:56:57;6.00;99.90
33955;DHT22;20233;50.804;7.126;2023-12-22T02:59:24;6.10;99.90
33955;DHT22;20233;50.804;7.126;2023-12-22T03:01:51;6.10;99.90
33955;DHT22;20233;50.804;7.126;2023-12-22T03:04:18;6.20;99.90
33955;DHT22;20233;50.804;7.126;2023-12-22T03:06:45;6.30;99.90
33955;DHT22;20233;50.804;7.126;2023-12-22T03:09:11;6.30;99.90
33955;DHT22;20233;50.804;7.126;2023-12-22T03:11:37;6.10;99.90
33955;DHT22;20233;50.804;7.126;2023-12-22T03:14:05;6.10;99.90
33955;DHT22;20233;50.804;7.126;2023-12-22T03:16:32;6.20;99.90
33955;DHT22;20233;50.804;7.126;2023-12-22T03:18:58;6.10;99.90
33955;DHT22;20233;50.804;7.126;2023-12-22T03:21:24;6.10;99.90
33955;DHT22;20233;50.804;7.126;2023-12-22T03:23:50;6.10;99.90
33955;DHT22;20233;50.804;7.126;2023-12-22T03:26:16;6.20;99.90
33955;DHT22;20233;50.804;7.126;2023-12-22T03:28:42;6.20;99.90
33955;DHT22;20233;50.804;7.126;2023-12-22T03:31:09;6.30;99.90
33955;DHT22;20233;50.804;7.126;2023-12-22T03:33:36;6.30;99.90
33955;DHT22;20233;50.804;7.126;2023-12-22T03:36:04;6.30;99.90
33955;DHT22;20233;50.804;7.126;2023-12-22T03:38:30;6.30;99.90
33955;DHT22;20233;50.804;7.126;2023-12-22T03:40:56;6.40;99.90
33955;DHT22;20233;50.804;7.126;2023-12-22T03:43:22;6.50;99.90
33955;DHT22;20233;50.804;7.126;2023-12-22T03:45:51;6.50;99.90
33955;DHT22;20233;50.804;7.126;2023-12-22T03:48:17;6.50;99.90
33955;DHT22;20233;50.804;7.126;2023-12-22T03:50:43;6.50;99.90
33955;DHT22;20233;50.804;7.126;2023-12-22T03:53:10;6.60;99.90
33955;DHT22;20233;50.804;7.126;2023-12-22T03:55:36;6.70;99.90
33955;DHT22;20233;50.804;7.126;2023-12-22T03:58:03;6.70;99.90
33955;DHT22;20233;50.804;7.126;2023-12-22T04:00:31;6.80;99.90
33955;DHT22;20233;50.804;7.126;2023-12-22T04:02:57;6.90;99.90
33955;DHT22;20233;50.804;7.126;2023-12-22T04:05:23;7.00;99.90
33955;DHT22;20233;50.804;7.126;2023-12-22T04:07:50;7.00;99.90
33955;DHT22;20233;50.804;7.126;2023-12-22T04:10:17;7.00;99.90
33955;DHT22;20233;50.804;7.126;2023-12-22T04:12:44;7.00;99.90
33955;DHT22;20233;50.804;7.126;2023-12-22T04:15:11;7.00;99.90
33955;DHT22;20233;50.804;7.126;2023-12-22T04:17:37;7.40;99.90
33955;DHT22;20233;50.804;7.126;2023-12-22T04:20:03;7.30;99.90
33955;DHT22;20233;50.804;7.126;2023-12-22T04:22:31;7.10;99.90
33955;DHT22;20233;50.804;7.126;2023-12-22T04:24:58;7.10;99.90
33955;DHT22;20233;50.804;7.126;2023-12-22T04:27:24;7.10;99.90
33955;DHT22;20233;50.804;7.126;2023-12-22T04:29:50;7.00;99.90
33955;DHT22;20233;50.804;7.126;2023-12-22T04:32:16;7.00;99.90
33955;DHT22;20233;50.804;7.126;2023-12-22T04:34:43;7.00;99.90
33955;DHT22;20233;50.804;7.126;2023-12-22T04:37:09;7.00;99.90
33955;DHT22;20233;50.804;7.126;2023-12-22T04:39:36;7.00;99.90
33955;DHT22;20233;50.804;7.126;2023-12-22T04:42:02;7.00;99.90
33955;DHT22;20233;50.804;7.126;2023-12-22T04:44:29;6.90;99.90
33955;DHT22;20233;50.804;7.126;2023-12-22T04:46:55;7.00;99.90
33955;DHT22;20233;50.804;7.126;2023-12-22T04:49:21;6.90;99.90
33955;DHT22;20233;50.804;7.126;2023-12-22T04:51:47;6.90;99.90
33955;DHT22;20233;50.804;7.126;2023-12-22T04:54:13;6.90;99.90
33955;DHT22;20233;50.804;7.126;2023-12-22T04:56:40;6.90;99.90
33955;DHT22;20233;50.804;7.126;2023-12-22T04:59:06;6.90;99.90
33955;DHT22;20233;50.804;7.126;2023-12-22T05:01:34;6.90;99.90
33955;DHT22;20233;50.804;7.126;2023-12-22T05:04:00;6.90;99.90
33955;DHT22;20233;50.804;7.126;2023-12-22T05:06:28;6.90;99.90
33955;DHT22;20233;50.804;7.126;2023-12-22T05:08:56;6.90;99.90
33955;DHT22;20233;50.804;7.126;2023-12-22T05:11:23;6.90;99.90
33955;DHT22;20233;50.804;7.126;2023-12-22T05:13:48;6.90;99.90
33955;DHT22;20233;50.804;7.126;2023-12-22T05:16:15;7.00;99.90
33955;DHT22;20233;50.804;7.126;2023-12-22T05:18:41;7.00;99.90
33955;DHT22;20233;50.804;7.126;2023-12-22T05:21:11;7.00;99.90
33955;DHT22;20233;50.804;7.126;2023-12-22T05:26:04;7.10;99.90
33955;DHT22;20233;50.804;7.126;2023-12-22T05:28:30;7.20;99.90
33955;DHT22;20233;50.804;7.126;2023-12-22T05:30:56;7.30;99.90
33955;DHT22;20233;50.804;7.126;2023-12-22T05:33:22;7.40;99.90
33955;DHT22;20233;50.804;7.126;2023-12-22T05:35:49;7.50;99.90
33955;DHT22;20233;50.804;7.126;2023-12-22T05:38:15;7.60;99.90
33955;DHT22;20233;50.804;7.126;2023-12-22T05:40:42;7.60;99.90
33955;DHT22;20233;50.804;7.126;2023-12-22T05:43:09;7.60;99.90
33955;DHT22;20233;50.804;7.126;2023-12-22T05:45:35;7.70;99.90
33955;DHT22;20233;50.804;7.126;2023-12-22T05:48:02;7.70;99.90
33955;DHT22;20233;50.804;7.126;2023-12-22T05:50:27;7.80;99.90
33955;DHT22;20233;50.804;7.126;2023-12-22T05:52:54;8.00;99.90
33955;DHT22;20233;50.804;7.126;2023-12-22T05:55:19;7.90;99.90
33955;DHT22;20233;50.804;7.126;2023-12-22T05:57:47;7.90;99.90
33955;DHT22;20233;50.804;7.126;2023-12-22T06:00:14;8.10;99.90
33955;DHT22;20233;50.804;7.126;2023-12-22T06:02:41;8.20;99.90
33955;DHT22;20233;50.804;7.126;2023-12-22T06:05:08;8.20;99.90
33955;DHT22;20233;50.804;7.126;2023-12-22T06:07:35;8.20;99.90
33955;DHT22;20233;50.804;7.126;2023-12-22T06:10:01;8.30;99.90
33955;DHT22;20233;50.804;7.126;2023-12-22T06:12:27;8.30;99.90
33955;DHT22;20233;50.804;7.126;2023-12-22T06:14:53;8.30;99.90
33955;DHT22;20233;50.804;7.126;2023-12-22T06:17:19;8.30;99.90
33955;DHT22;20233;50.804;7.126;2023-12-22T06:19:47;8.30;99.90
33955;DHT22;20233;50.804;7.126;2023-12-22T06:22:13;8.30;99.90
33955;DHT22;20233;50.804;7.126;2023-12-22T06:24:39;8.30;99.90
33955;DHT22;20233;50.804;7.126;2023-12-22T06:27:06;8.30;99.90
33955;DHT22;20233;50.804;7.126;2023-12-22T06:29:34;8.30;99.90
33955;DHT22;20233;50.804;7.126;2023-12-22T06:32:00;8.30;99.90
33955;DHT22;20233;50.804;7.126;2023-12-22T06:34:26;8.30;99.90
33955;DHT22;20233;50.804;7.126;2023-12-22T06:36:53;8.30;99.90
33955;DHT22;20233;50.804;7.126;2023-12-22T06:39:22;8.30;99.90
33955;DHT22;20233;50.804;7.126;2023-12-22T06:41:48;8.40;99.90
33955;DHT22;20233;50.804;7.126;2023-12-22T06:44:16;8.50;99.90
33955;DHT22;20233;50.804;7.126;2023-12-22T06:46:42;8.40;99.90
33955;DHT22;20233;50.804;7.126;2023-12-22T06:49:08;8.40;99.90
33955;DHT22;20233;50.804;7.126;2023-12-22T06:51:34;8.30;99.90
33955;DHT22;20233;50.804;7.126;2023-12-22T06:54:02;8.30;99.90
33955;DHT22;20233;50.804;7.126;2023-12-22T06:56:30;8.20;99.90
33955;DHT22;20233;50.804;7.126;2023-12-22T06:58:57;8.30;99.90
33955;DHT22;20233;50.804;7.126;2023-12-22T07:01:27;8.20;99.90
33955;DHT22;20233;50.804;7.126;2023-12-22T07:03:53;8.20;99.90
33955;DHT22;20233;50.804;7.126;2023-12-22T07:06:21;8.20;99.90
33955;DHT22;20233;50.804;7.126;2023-12-22T07:11:51;8.10;99.90
33955;DHT22;20233;50.804;7.126;2023-12-22T07:14:22;7.70;99.90
33955;DHT22;20233;50.804;7.126;2023-12-22T07:16:48;7.50;99.90
33955;DHT22;20233;50.804;7.126;2023-12-22T07:19:15;7.40;99.90
33955;DHT22;20233;50.804;7.126;2023-12-22T07:21:42;7.40;99.90
33955;DHT22;20233;50.804;7.126;2023-12-22T07:24:08;7.40;99.90
33955;DHT22;20233;50.804;7.126;2023-12-22T07:26:34;7.30;99.90
33955;DHT22;20233;50.804;7.126;2023-12-22T07:29:02;7.30;99.90
33955;DHT22;20233;50.804;7.126;2023-12-22T07:31:28;7.30;99.90
33955;DHT22;20233;50.804;7.126;2023-12-22T07:33:54;7.30;99.90
33955;DHT22;20233;50.804;7.126;2023-12-22T07:36:20;7.30;99.90
33955;DHT22;20233;50.804;7.126;2023-12-22T07:38:49;7.30;99.90
33955;DHT22;20233;50.804;7.126;2023-12-22T07:41:15;7.40;99.90
33955;DHT22;20233;50.804;7.126;2023-12-22T07:43:40;7.40;99.90
33955;DHT22;20233;50.804;7.126;2023-12-22T07:46:07;7.40;99.90
33955;DHT22;20233;50.804;7.126;2023-12-22T07:48:34;7.50;99.90
33955;DHT22;20233;50.804;7.126;2023-12-22T07:51:00;7.50;99.90
33955;DHT22;20233;50.804;7.126;2023-12-22T07:53:25;7.50;99.90
33955;DHT22;20233;50.804;7.126;2023-12-22T07:55:51;7.60;99.90
33955;DHT22;20233;50.804;7.126;2023-12-22T07:58:17;7.60;99.90
33955;DHT22;20233;50.804;7.126;2023-12-22T08:00:43;7.60;99.90
33955;DHT22;20233;50.804;7.126;2023-12-22T08:03:08;7.60;99.90
33955;DHT22;20233;50.804;7.126;2023-12-22T08:05:35;7.70;99.90
33955;DHT22;20233;50.804;7.126;2023-12-22T08:08:01;7.70;99.90
33955;DHT22;20233;50.804;7.126;2023-12-22T08:10:26;7.70;99.90
33955;DHT22;20233;50.804;7.126;2023-12-22T08:12:53;7.80;99.90
33955;DHT22;20233;50.804;7.126;2023-12-22T08:15:19;7.80;99.90
33955;DHT22;20233;50.804;7.126;2023-12-22T08:17:49;7.80;99.90
33955;DHT22;20233;50.804;7.126;2023-12-22T08:20:20;7.80;99.90
33955;DHT22;20233;50.804;7.126;2023-12-22T08:22:50;7.80;99.90
33955;DHT22;20233;50.804;7.126;2023-12-22T08:25:19;7.90;99.90
33955;DHT22;20233;50.804;7.126;2023-12-22T08:27:48;7.90;99.90
33955;DHT22;20233;50.804;7.126;2023-12-22T08:30:14;8.00;99.90
33955;DHT22;20233;50.804;7.126;2023-12-22T08:32:40;8.00;99.90
33955;DHT22;20233;50.804;7.126;2023-12-22T08:37:33;8.00;99.90
33955;DHT22;20233;50.804;7.126;2023-12-22T08:39:59;8.10;99.90
33955;DHT22;20233;50.804;7.126;2023-12-22T08:42:26;8.10;99.90
33955;DHT22;20233;50.804;7.126;2023-12-22T08:44:55;8.20;99.90
33955;DHT22;20233;50.804;7.126;2023-12-22T08:47:21;8.20;99.90
33955;DHT22;20233;50.804;7.126;2023-12-22T08:49:47;8.40;99.90
33955;DHT22;20233;50.804;7.126;2023-12-22T08:52:13;8.40;99.90
33955;DHT22;20233;50.804;7.126;2023-12-22T08:54:40;8.40;99.90
33955;DHT22;20233;50.804;7.126;2023-12-22T08:57:06;8.40;99.90
33955;DHT22;20233;50.804;7.126;2023-12-22T08:59:33;8.40;99.90
33955;DHT22;20233;50.804;7.126;2023-12-22T09:02:00;8.40;99.90
33955;DHT22;20233;50.804;7.126;2023-12-22T09:04:26;8.50;99.90
33955;DHT22;20233;50.804;7.126;2023-12-22T09:06:52;8.50;99.90
33955;DHT22;20233;50.804;7.126;2023-12-22T09:09:20;8.60;99.90
33955;DHT22;20233;50.804;7.126;2023-12-22T09:11:47;8.60;99.90
33955;DHT22;20233;50.804;7.126;2023-12-22T09:14:14;8.50;99.90
33955;DHT22;20233;50.804;7.126;2023-12-22T09:16:41;8.60;99.90
33955;DHT22;20233;50.804;7.126;2023-12-22T09:19:11;8.60;99.90
33955;DHT22;20233;50.804;7.126;2023-12-22T09:21:38;8.60;99.90
33955;DHT22;20233;50.804;7.126;2023-12-22T09:24:05;8.60;99.90
33955;DHT22;20233;50.804;7.126;2023-12-22T09:26:32;8.70;99.90
33955;DHT22;20233;50.804;7.126;2023-12-22T09:28:59;8.70;99.90
33955;DHT22;20233;50.804;7.126;2023-12-22T09:31:25;8.70;99.90
33955;DHT22;20233;50.804;7.126;2023-12-22T09:33:51;8.70;99.90
33955;DHT22;20233;50.804;7.126;2023-12-22T09:36:18;8.70;99.90
33955;DHT22;20233;50.804;7.126;2023-12-22T09:38:44;8.70;99.90
33955;DHT22;20233;50.804;7.126;2023-12-22T09:41:10;8.70;99.90
33955;DHT22;20233;50.804;7.126;2023-12-22T09:43:37;8.80;99.90
33955;DHT22;20233;50.804;7.126;2023-12-22T09:46:06;8.80;99.90
33955;DHT22;20233;50.804;7.126;2023-12-22T09:48:33;8.80;99.90
33955;DHT22;20233;50.804;7.126;2023-12-22T09:51:02;8.80;99.90
33955;DHT22;20233;50.804;7.126;2023-12-22T09:53:29;8.90;99.90
33955;DHT22;20233;50.804;7.126;2023-12-22T09:55:58;8.90;99.90
33955;DHT22;20233;50.804;7.126;2023-12-22T09:58:25;9.00;99.90
33955;DHT22;20233;50.804;7.126;2023-12-22T10:00:51;8.90;99.90
33955;DHT22;20233;50.804;7.126;2023-12-22T10:05:47;9.00;99.90
33955;DHT22;20233;50.804;7.126;2023-12-22T10:08:15;9.00;99.90
33955;DHT22;20233;50.804;7.126;2023-12-22T10:10:43;9.10;99.90
33955;DHT22;20233;50.804;7.126;2023-12-22T10:13:10;9.10;99.90
33955;DHT22;20233;50.804;7.126;2023-12-22T10:15:40;9.10;99.90
33955;DHT22;20233;50.804;7.126;2023-12-22T10:18:10;9.10;99.90
33955;DHT22;20233;50.804;7.126;2023-12-22T10:20:37;9.10;99.90
33955;DHT22;20233;50.804;7.126;2023-12-22T10:23:04;9.10;99.90
33955;DHT22;20233;50.804;7.126;2023-12-22T10:25:31;9.10;99.90
33955;DHT22;20233;50.804;7.126;2023-12-22T10:27:58;9.20;99.90
33955;DHT22;20233;50.804;7.126;2023-12-22T10:30:25;9.20;99.90
33955;DHT22;20233;50.804;7.126;2023-12-22T10:32:51;9.20;99.90
33955;DHT22;20233;50.804;7.126;2023-12-22T10:35:20;9.20;99.90
33955;DHT22;20233;50.804;7.126;2023-12-22T10:37:47;9.10;99.90
33955;DHT22;20233;50.804;7.126;2023-12-22T10:40:15;9.10;99.90
33955;DHT22;20233;50.804;7.126;2023-12-22T10:42:41;9.10;99.90
33955;DHT22;20233;50.804;7.126;2023-12-22T10:45:09;9.00;99.90
33955;DHT22;20233;50.804;7.126;2023-12-22T10:47:37;9.00;99.90
33955;DHT22;20233;50.804;7.126;2023-12-22T10:50:04;9.10;99.90
33955;DHT22;20233;50.804;7.126;2023-12-22T10:52:30;9.10;99.90
33955;DHT22;20233;50.804;7.126;2023-12-22T10:55:00;9.10;99.90
33955;DHT22;20233;50.804;7.126;2023-12-22T10:57:27;9.10;99.90
33955;DHT22;20233;50.804;7.126;2023-12-22T10:59:56;9.10;99.90
33955;DHT22;20233;50.804;7.126;2023-12-22T11:02:27;9.10;99.90
33955;DHT22;20233;50.804;7.126;2023-12-22T11:05:03;9.10;99.90
33955;DHT22;20233;50.804;7.126;2023-12-22T11:07:35;9.00;99.90
33955;DHT22;20233;50.804;7.126;2023-12-22T11:10:05;9.00;99.90
33955;DHT22;20233;50.804;7.126;2023-12-22T11:12:36;9.00;99.90
33955;DHT22;20233;50.804;7.126;2023-12-22T11:15:07;9.00;99.90
33955;DHT22;20233;50.804;7.126;2023-12-22T11:17:37;9.00;99.90
33955;DHT22;20233;50.804;7.126;2023-12-22T11:20:09;9.00;99.90
33955;DHT22;20233;50.804;7.126;2023-12-22T11:22:37;9.10;99.90
33955;DHT22;20233;50.804;7.126;2023-12-22T11:25:06;9.10;99.90
33955;DHT22;20233;50.804;7.126;2023-12-22T11:27:34;9.20;99.90
33955;DHT22;20233;50.804;7.126;2023-12-22T11:30:04;9.20;99.90
33955;DHT22;20233;50.804;7.126;2023-12-22T11:32:34;9.20;99.90
33955;DHT22;20233;50.804;7.126;2023-12-22T11:35:02;9.30;99.90
33955;DHT22;20233;50.804;7.126;2023-12-22T11:37:31;9.30;99.90
33955;DHT22;20233;50.804;7.126;2023-12-22T11:39:58;9.40;99.90
33955;DHT22;20233;50.804;7.126;2023-12-22T11:44:53;9.40;99.90
33955;DHT22;20233;50.804;7.126;2023-12-22T11:47:24;9.50;99.90
33955;DHT22;20233;50.804;7.126;2023-12-22T11:49:50;9.60;99.90
33955;DHT22;20233;50.804;7.126;2023-12-22T11:52:24;9.60;99.90
33955;DHT22;20233;50.804;7.126;2023-12-22T11:54:52;9.60;99.90
33955;DHT22;20233;50.804;7.126;2023-12-22T11:59:56;9.40;99.90
33955;DHT22;20233;50.804;7.126;2023-12-22T12:02:23;9.40;99.90
33955;DHT22;20233;50.804;7.126;2023-12-22T12:04:50;9.40;99.90
33955;DHT22;20233;50.804;7.126;2023-12-22T12:07:56;9.40;99.90
33955;DHT22;20233;50.804;7.126;2023-12-22T12:13:11;9.50;99.90
33955;DHT22;20233;50.804;7.126;2023-12-22T12:15:38;9.60;99.90
33955;DHT22;20233;50.804;7.126;2023-12-22T12:18:06;9.60;99.90
33955;DHT22;20233;50.804;7.126;2023-12-22T12:20:33;9.70;99.90
33955;DHT22;20233;50.804;7.126;2023-12-22T12:23:01;9.70;99.90
33955;DHT22;20233;50.804;7.126;2023-12-22T12:25:28;9.70;99.90
33955;DHT22;20233;50.804;7.126;2023-12-22T12:28:04;9.80;99.90
33955;DHT22;20233;50.804;7.126;2023-12-22T12:30:32;9.80;99.90
33955;DHT22;20233;50.804;7.126;2023-12-22T12:33:09;9.90;99.90
33955;DHT22;20233;50.804;7.126;2023-12-22T12:35:38;9.90;99.90
33955;DHT22;20233;50.804;7.126;2023-12-22T12:38:05;10.00;99.90
33955;DHT22;20233;50.804;7.126;2023-12-22T12:40:32;10.00;99.90
33955;DHT22;20233;50.804;7.126;2023-12-22T12:43:01;10.00;99.90
33955;DHT22;20233;50.804;7.126;2023-12-22T12:45:28;10.10;99.90
33955;DHT22;20233;50.804;7.126;2023-12-22T12:47:58;10.10;99.90
33955;DHT22;20233;50.804;7.126;2023-12-22T12:50:26;10.10;99.90
33955;DHT22;20233;50.804;7.126;2023-12-22T12:52:55;10.10;99.90
33955;DHT22;20233;50.804;7.126;2023-12-22T12:55:23;10.20;99.90
33955;DHT22;20233;50.804;7.126;2023-12-22T12:57:50;10.20;99.90
33955;DHT22;20233;50.804;7.126;2023-12-22T13:00:30;10.30;99.90
33955;DHT22;20233;50.804;7.126;2023-12-22T13:03:05;10.30;99.90
33955;DHT22;20233;50.804;7.126;2023-12-22T13:05:32;10.30;99.90
33955;DHT22;20233;50.804;7.126;2023-12-22T13:08:12;10.20;99.90
33955;DHT22;20233;50.804;7.126;2023-12-22T13:10:39;10.30;99.90
33955;DHT22;20233;50.804;7.126;2023-12-22T13:13:07;10.30;99.90
33955;DHT22;20233;50.804;7.126;2023-12-22T13:15:33;10.30;99.90
33955;DHT22;20233;50.804;7.126;2023-12-22T13:18:01;10.30;99.90
33955;DHT22;20233;50.804;7.126;2023-12-22T13:20:27;10.20;99.90
33955;DHT22;20233;50.804;7.126;2023-12-22T13:22:54;10.20;99.90
33955;DHT22;20233;50.804;7.126;2023-12-22T13:25:21;10.10;99.90
33955;DHT22;20233;50.804;7.126;2023-12-22T13:27:50;10.10;99.90
33955;DHT22;20233;50.804;7.126;2023-12-22T13:30:36;10.10;99.90
33955;DHT22;20233;50.804;7.126;2023-12-22T13:33:05;10.10;99.90
33955;DHT22;20233;50.804;7.126;2023-12-22T13:35:31;10.10;99.90
33955;DHT22;20233;50.804;7.126;2023-12-22T13:37:57;10.10;99.90
33955;DHT22;20233;50.804;7.126;2023-12-22T13:40:24;10.00;99.90
33955;DHT22;20233;50.804;7.126;2023-12-22T13:42:55;10.00;99.90
33955;DHT22;20233;50.804;7.126;2023-12-22T13:45:25;10.00;99.90
33955;DHT22;20233;50.804;7.126;2023-12-22T13:47:52;10.00;99.90
33955;DHT22;20233;50.804;7.126;2023-12-22T13:50:20;10.00;99.90
33955;DHT22;20233;50.804;7.126;2023-12-22T13:52:50;10.00;99.90
33955;DHT22;20233;50.804;7.126;2023-12-22T13:55:19;10.00;99.90
33955;DHT22;20233;50.804;7.126;2023-12-22T13:57:46;10.10;99.90
33955;DHT22;20233;50.804;7.126;2023-12-22T14:00:24;10.10;99.90
33955;DHT22;20233;50.804;7.126;2023-12-22T14:02:52;10.10;99.90
33955;DHT22;20233;50.804;7.126;2023-12-22T14:05:22;10.20;99.90
33955;DHT22;20233;50.804;7.126;2023-12-22T14:07:49;10.20;99.90
33955;DHT22;20233;50.804;7.126;2023-12-22T14:10:15;10.20;99.90
33955;DHT22;20233;50.804;7.126;2023-12-22T14:12:41;10.30;99.90
33955;DHT22;20233;50.804;7.126;2023-12-22T14:15:08;10.30;99.90
33955;DHT22;20233;50.804;7.126;2023-12-22T14:17:37;10.30;99.90
33955;DHT22;20233;50.804;7.126;2023-12-22T14:20:04;10.30;99.90
33955;DHT22;20233;50.804;7.126;2023-12-22T14:22:30;10.30;99.90
33955;DHT22;20233;50.804;7.126;2023-12-22T14:24:57;10.30;99.90
33955;DHT22;20233;50.804;7.126;2023-12-22T14:27:23;10.30;99.90
33955;DHT22;20233;50.804;7.126;2023-12-22T14:29:50;10.30;99.90
33955;DHT22;20233;50.804;7.126;2023-12-22T14:32:16;10.20;99.90
33955;DHT22;20233;50.804;7.126;2023-12-22T14:35:03;10.20;99.90
33955;DHT22;20233;50.804;7.126;2023-12-22T14:37:30;10.20;99.90
33955;DHT22;20233;50.804;7.126;2023-12-22T14:39:56;10.20;99.90
33955;DHT22;20233;50.804;7.126;2023-12-22T14:42:22;10.20;99.90
33955;DHT22;20233;50.804;7.126;2023-12-22T14:44:49;10.20;99.90
33955;DHT22;20233;50.804;7.126;2023-12-22T14:47:15;10.20;99.90
33955;DHT22;20233;50.804;7.126;2023-12-22T14:49:43;10.20;99.90
33955;DHT22;20233;50.804;7.126;2023-12-22T14:52:09;10.20;99.90
33955;DHT22;20233;50.804;7.126;2023-12-22T14:54:36;10.10;99.90
33955;DHT22;20233;50.804;7.126;2023-12-22T14:57:03;10.10;99.90
33955;DHT22;20233;50.804;7.126;2023-12-22T14:59:29;10.20;99.90
33955;DHT22;20233;50.804;7.126;2023-12-22T15:01:56;10.10;99.90
33955;DHT22;20233;50.804;7.126;2023-12-22T15:04:22;10.10;99.90
33955;DHT22;20233;50.804;7.126;2023-12-22T15:06:49;10.20;99.90
33955;DHT22;20233;50.804;7.126;2023-12-22T15:09:16;10.20;99.90
33955;DHT22;20233;50.804;7.126;2023-12-22T15:11:44;10.20;99.90
33955;DHT22;20233;50.804;7.126;2023-12-22T15:14:12;10.20;99.90
33955;DHT22;20233;50.804;7.126;2023-12-22T15:16:42;10.10;99.90
33955;DHT22;20233;50.804;7.126;2023-12-22T15:19:12;10.20;99.90
33955;DHT22;20233;50.804;7.126;2023-12-22T15:21:39;10.20;99.90
33955;DHT22;20233;50.804;7.126;2023-12-22T15:24:06;10.20;99.90
33955;DHT22;20233;50.804;7.126;2023-12-22T15:26:33;10.20;99.90
33955;DHT22;20233;50.804;7.126;2023-12-22T15:29:01;10.20;99.90
33955;DHT22;20233;50.804;7.126;2023-12-22T15:31:27;10.20;99.90
33955;DHT22;20233;50.804;7.126;2023-12-22T15:33:57;10.10;99.90
33955;DHT22;20233;50.804;7.126;2023-12-22T15:36:24;10.10;99.90
33955;DHT22;20233;50.804;7.126;2023-12-22T15:38:51;10.10;99.90
33955;DHT22;20233;50.804;7.126;2023-12-22T15:41:18;10.10;99.90
33955;DHT22;20233;50.804;7.126;2023-12-22T15:43:45;10.10;99.90
33955;DHT22;20233;50.804;7.126;2023-12-22T15:46:12;10.10;99.90
33955;DHT22;20233;50.804;7.126;2023-12-22T15:48:38;10.00;99.90
33955;DHT22;20233;50.804;7.126;2023-12-22T15:51:08;10.00;99.90
33955;DHT22;20233;50.804;7.126;2023-12-22T15:53:40;10.00;99.90
33955;DHT22;20233;50.804;7.126;2023-12-22T15:56:11;10.00;99.90
33955;DHT22;20233;50.804;7.126;2023-12-22T15:58:39;10.00;99.90
33955;DHT22;20233;50.804;7.126;2023-12-22T16:01:12;10.00;99.90
33955;DHT22;20233;50.804;7.126;2023-12-22T16:03:41;10.10;99.90
33955;DHT22;20233;50.804;7.126;2023-12-22T16:06:09;10.10;99.90